sensor_id;sensor_type;location;lat;lon;timestamp;P1;durP1;ratioP1;P2;durP2;ratioP2
30896;SDS011;64229;52.246;21.054;2023-12-20T00:01:27;35.67;;;12.85;;
30896;SDS011;64229;52.246;21.054;2023-12-20T00:03:52;28.17;;;11.20;;
30896;SDS011;64229;52.246;21.054;2023-12-20T00:06:17;30.25;;;10.82;;
30896;SDS011;64229;52.246;21.054;2023-12-20T00:08:43;30.90;;;11.80;;
30896;SDS011;64229;52.246;21.054;2023-12-20T00:11:09;28.45;;;11.40;;
30896;SDS011;64229;52.246;21.054;2023-12-20T00:13:34;30.75;;;11.73;;
30896;SDS011;64229;52.246;21.054;2023-12-20T00:15:59;32.90;;;12.02;;
30896;SDS011;64229;52.246;21.054;2023-12-20T00:18:25;30.38;;;11.00;;
30896;SDS011;64229;52.246;21.054;2023-12-20T00:20:50;31.10;;;11.23;;
30896;SDS011;64229;52.246;21.054;2023-12-20T00:23:16;29.83;;;11.45;;
30896;SDS011;64229;52.246;21.054;2023-12-20T00:25:41;26.58;;;10.60;;
30896;SDS011;64229;52.246;21.054;2023-12-20T00:28:06;28.23;;;10.25;;
30896;SDS011;64229;52.246;21.054;2023-12-20T00:30:32;29.95;;;11.10;;
30896;SDS011;64229;52.246;21.054;2023-12-20T00:32:57;28.95;;;10.18;;
30896;SDS011;64229;52.246;21.054;2023-12-20T00:35:22;27.65;;;10.70;;
30896;SDS011;64229;52.246;21.054;2023-12-20T00:37:48;31.40;;;11.73;;
30896;SDS011;64229;52.246;21.054;2023-12-20T00:40:13;34.90;;;11.82;;
30896;SDS011;64229;52.246;21.054;2023-12-20T00:42:38;32.15;;;11.90;;
30896;SDS011;64229;52.246;21.054;2023-12-20T00:45:04;33.10;;;10.93;;
30896;SDS011;64229;52.246;21.054;2023-12-20T00:47:32;32.03;;;10.93;;
30896;SDS011;64229;52.246;21.054;2023-12-20T00:49:58;31.70;;;10.77;;
30896;SDS011;64229;52.246;21.054;2023-12-20T00:52:23;30.77;;;10.35;;
30896;SDS011;64229;52.246;21.054;2023-12-20T00:54:49;27.60;;;10.30;;
30896;SDS011;64229;52.246;21.054;2023-12-20T00:57:14;29.27;;;10.20;;
30896;SDS011;64229;52.246;21.054;2023-12-20T00:59:40;28.58;;;10.40;;
30896;SDS011;64229;52.246;21.054;2023-12-20T01:02:05;26.60;;;10.60;;
30896;SDS011;64229;52.246;21.054;2023-12-20T01:04:30;31.08;;;10.95;;
30896;SDS011;64229;52.246;21.054;2023-12-20T01:06:56;32.40;;;11.07;;
30896;SDS011;64229;52.246;21.054;2023-12-20T01:09:21;30.02;;;11.23;;
30896;SDS011;64229;52.246;21.054;2023-12-20T01:11:51;31.33;;;11.45;;
30896;SDS011;64229;52.246;21.054;2023-12-20T01:14:16;30.42;;;11.15;;
30896;SDS011;64229;52.246;21.054;2023-12-20T01:16:42;25.83;;;10.45;;
30896;SDS011;64229;52.246;21.054;2023-12-20T01:19:07;30.08;;;11.23;;
30896;SDS011;64229;52.246;21.054;2023-12-20T01:21:32;22.55;;;10.00;;
30896;SDS011;64229;52.246;21.054;2023-12-20T01:23:58;26.25;;;10.00;;
30896;SDS011;64229;52.246;21.054;2023-12-20T01:26:23;29.98;;;10.10;;
30896;SDS011;64229;52.246;21.054;2023-12-20T01:28:49;28.00;;;9.75;;
30896;SDS011;64229;52.246;21.054;2023-12-20T01:31:14;28.83;;;11.02;;
30896;SDS011;64229;52.246;21.054;2023-12-20T01:33:39;27.38;;;9.90;;
30896;SDS011;64229;52.246;21.054;2023-12-20T01:36:05;25.70;;;9.65;;
30896;SDS011;64229;52.246;21.054;2023-12-20T01:38:30;22.42;;;8.85;;
30896;SDS011;64229;52.246;21.054;2023-12-20T01:40:55;25.52;;;10.63;;
30896;SDS011;64229;52.246;21.054;2023-12-20T01:43:21;24.95;;;8.90;;
30896;SDS011;64229;52.246;21.054;2023-12-20T01:45:46;16.90;;;8.68;;
30896;SDS011;64229;52.246;21.054;2023-12-20T01:48:12;18.17;;;9.68;;
30896;SDS011;64229;52.246;21.054;2023-12-20T01:50:38;15.90;;;8.82;;
30896;SDS011;64229;52.246;21.054;2023-12-20T01:53:05;16.35;;;8.68;;
30896;SDS011;64229;52.246;21.054;2023-12-20T01:55:34;20.10;;;9.60;;
30896;SDS011;64229;52.246;21.054;2023-12-20T01:58:01;17.30;;;8.43;;
30896;SDS011;64229;52.246;21.054;2023-12-20T02:00:28;16.58;;;8.60;;
30896;SDS011;64229;52.246;21.054;2023-12-20T02:02:55;16.92;;;8.00;;
30896;SDS011;64229;52.246;21.054;2023-12-20T02:05:21;13.63;;;7.50;;
30896;SDS011;64229;52.246;21.054;2023-12-20T02:07:47;13.52;;;7.53;;
30896;SDS011;64229;52.246;21.054;2023-12-20T02:10:12;14.88;;;7.50;;
30896;SDS011;64229;52.246;21.054;2023-12-20T02:12:38;15.95;;;7.82;;
30896;SDS011;64229;52.246;21.054;2023-12-20T02:15:04;11.68;;;7.32;;
30896;SDS011;64229;52.246;21.054;2023-12-20T02:17:30;13.38;;;8.23;;
30896;SDS011;64229;52.246;21.054;2023-12-20T02:19:57;10.45;;;6.20;;
30896;SDS011;64229;52.246;21.054;2023-12-20T02:22:22;11.35;;;6.90;;
30896;SDS011;64229;52.246;21.054;2023-12-20T02:24:47;8.90;;;5.68;;
30896;SDS011;64229;52.246;21.054;2023-12-20T02:27:13;11.88;;;6.32;;
30896;SDS011;64229;52.246;21.054;2023-12-20T02:29:40;8.85;;;5.35;;
30896;SDS011;64229;52.246;21.054;2023-12-20T02:32:05;9.75;;;5.55;;
30896;SDS011;64229;52.246;21.054;2023-12-20T02:34:31;8.63;;;5.35;;
30896;SDS011;64229;52.246;21.054;2023-12-20T02:36:56;12.38;;;5.60;;
30896;SDS011;64229;52.246;21.054;2023-12-20T02:39:21;8.73;;;5.10;;
30896;SDS011;64229;52.246;21.054;2023-12-20T02:41:47;8.98;;;4.88;;
30896;SDS011;64229;52.246;21.054;2023-12-20T02:44:13;7.43;;;4.25;;
30896;SDS011;64229;52.246;21.054;2023-12-20T02:46:39;10.05;;;5.18;;
30896;SDS011;64229;52.246;21.054;2023-12-20T02:49:04;9.60;;;4.88;;
30896;SDS011;64229;52.246;21.054;2023-12-20T02:51:30;7.38;;;4.30;;
30896;SDS011;64229;52.246;21.054;2023-12-20T02:53:56;6.55;;;3.95;;
30896;SDS011;64229;52.246;21.054;2023-12-20T02:56:21;6.93;;;3.90;;
30896;SDS011;64229;52.246;21.054;2023-12-20T02:58:46;7.65;;;4.50;;
30896;SDS011;64229;52.246;21.054;2023-12-20T03:01:11;6.47;;;3.78;;
30896;SDS011;64229;52.246;21.054;2023-12-20T03:03:37;6.68;;;3.42;;
30896;SDS011;64229;52.246;21.054;2023-12-20T03:06:02;8.00;;;4.38;;
30896;SDS011;64229;52.246;21.054;2023-12-20T03:08:28;8.32;;;4.18;;
30896;SDS011;64229;52.246;21.054;2023-12-20T03:10:53;6.50;;;3.67;;
30896;SDS011;64229;52.246;21.054;2023-12-20T03:13:19;7.32;;;4.90;;
30896;SDS011;64229;52.246;21.054;2023-12-20T03:15:45;7.85;;;4.35;;
30896;SDS011;64229;52.246;21.054;2023-12-20T03:18:10;9.13;;;4.55;;
30896;SDS011;64229;52.246;21.054;2023-12-20T03:20:36;12.18;;;4.43;;
30896;SDS011;64229;52.246;21.054;2023-12-20T03:23:01;7.80;;;4.30;;
30896;SDS011;64229;52.246;21.054;2023-12-20T03:25:26;7.60;;;4.70;;
30896;SDS011;64229;52.246;21.054;2023-12-20T03:27:52;7.00;;;4.82;;
30896;SDS011;64229;52.246;21.054;2023-12-20T03:30:17;6.80;;;4.38;;
30896;SDS011;64229;52.246;21.054;2023-12-20T03:32:43;9.18;;;4.68;;
30896;SDS011;64229;52.246;21.054;2023-12-20T03:35:08;7.50;;;4.85;;
30896;SDS011;64229;52.246;21.054;2023-12-20T03:37:34;8.43;;;4.60;;
30896;SDS011;64229;52.246;21.054;2023-12-20T03:39:59;7.60;;;4.40;;
30896;SDS011;64229;52.246;21.054;2023-12-20T03:42:25;7.68;;;4.32;;
30896;SDS011;64229;52.246;21.054;2023-12-20T03:44:50;9.43;;;4.30;;
30896;SDS011;64229;52.246;21.054;2023-12-20T03:47:15;9.77;;;5.00;;
30896;SDS011;64229;52.246;21.054;2023-12-20T03:49:40;7.50;;;4.20;;
30896;SDS011;64229;52.246;21.054;2023-12-20T03:52:06;8.35;;;4.47;;
30896;SDS011;64229;52.246;21.054;2023-12-20T03:54:32;7.90;;;4.55;;
30896;SDS011;64229;52.246;21.054;2023-12-20T03:56:57;6.40;;;4.00;;
30896;SDS011;64229;52.246;21.054;2023-12-20T03:59:23;7.85;;;4.80;;
30896;SDS011;64229;52.246;21.054;2023-12-20T04:01:48;8.45;;;5.47;;
30896;SDS011;64229;52.246;21.054;2023-12-20T04:04:14;8.65;;;5.13;;
30896;SDS011;64229;52.246;21.054;2023-12-20T04:06:39;8.02;;;4.60;;
30896;SDS011;64229;52.246;21.054;2023-12-20T04:09:05;7.20;;;4.38;;
30896;SDS011;64229;52.246;21.054;2023-12-20T04:11:30;7.22;;;4.53;;
30896;SDS011;64229;52.246;21.054;2023-12-20T04:13:55;9.48;;;5.15;;
30896;SDS011;64229;52.246;21.054;2023-12-20T04:16:21;8.93;;;4.78;;
30896;SDS011;64229;52.246;21.054;2023-12-20T04:18:46;9.02;;;4.60;;
30896;SDS011;64229;52.246;21.054;2023-12-20T04:21:11;7.18;;;4.68;;
30896;SDS011;64229;52.246;21.054;2023-12-20T04:23:37;8.93;;;4.70;;
30896;SDS011;64229;52.246;21.054;2023-12-20T04:26:02;7.25;;;4.57;;
30896;SDS011;64229;52.246;21.054;2023-12-20T04:28:28;8.82;;;4.68;;
30896;SDS011;64229;52.246;21.054;2023-12-20T04:30:56;8.73;;;4.85;;
30896;SDS011;64229;52.246;21.054;2023-12-20T04:33:22;11.15;;;6.43;;
30896;SDS011;64229;52.246;21.054;2023-12-20T04:35:47;10.02;;;5.40;;
30896;SDS011;64229;52.246;21.054;2023-12-20T04:38:13;8.60;;;5.00;;
30896;SDS011;64229;52.246;21.054;2023-12-20T04:40:38;7.60;;;5.00;;
30896;SDS011;64229;52.246;21.054;2023-12-20T04:43:05;12.98;;;6.05;;
30896;SDS011;64229;52.246;21.054;2023-12-20T04:45:31;8.23;;;5.22;;
30896;SDS011;64229;52.246;21.054;2023-12-20T04:47:56;9.73;;;5.07;;
30896;SDS011;64229;52.246;21.054;2023-12-20T04:50:21;8.52;;;5.15;;
30896;SDS011;64229;52.246;21.054;2023-12-20T04:52:47;10.23;;;6.28;;
30896;SDS011;64229;52.246;21.054;2023-12-20T04:55:12;11.35;;;5.60;;
30896;SDS011;64229;52.246;21.054;2023-12-20T04:57:38;9.45;;;5.38;;
30896;SDS011;64229;52.246;21.054;2023-12-20T05:00:04;10.93;;;5.80;;
30896;SDS011;64229;52.246;21.054;2023-12-20T05:02:30;10.88;;;5.80;;
30896;SDS011;64229;52.246;21.054;2023-12-20T05:04:55;10.00;;;6.20;;
30896;SDS011;64229;52.246;21.054;2023-12-20T05:07:21;9.40;;;5.55;;
30896;SDS011;64229;52.246;21.054;2023-12-20T05:09:46;10.38;;;5.88;;
30896;SDS011;64229;52.246;21.054;2023-12-20T05:12:12;9.82;;;6.05;;
30896;SDS011;64229;52.246;21.054;2023-12-20T05:14:37;11.65;;;5.82;;
30896;SDS011;64229;52.246;21.054;2023-12-20T05:17:03;9.73;;;6.22;;
30896;SDS011;64229;52.246;21.054;2023-12-20T05:19:28;11.13;;;6.55;;
30896;SDS011;64229;52.246;21.054;2023-12-20T05:21:54;10.48;;;6.35;;
30896;SDS011;64229;52.246;21.054;2023-12-20T05:24:19;10.88;;;6.35;;
30896;SDS011;64229;52.246;21.054;2023-12-20T05:26:44;11.30;;;6.07;;
30896;SDS011;64229;52.246;21.054;2023-12-20T05:29:10;12.15;;;6.65;;
30896;SDS011;64229;52.246;21.054;2023-12-20T05:31:35;12.80;;;7.35;;
30896;SDS011;64229;52.246;21.054;2023-12-20T05:34:00;12.13;;;6.88;;
30896;SDS011;64229;52.246;21.054;2023-12-20T05:36:26;10.93;;;6.47;;
30896;SDS011;64229;52.246;21.054;2023-12-20T05:38:51;12.65;;;6.90;;
30896;SDS011;64229;52.246;21.054;2023-12-20T05:41:16;10.07;;;6.40;;
30896;SDS011;64229;52.246;21.054;2023-12-20T05:43:42;15.63;;;8.07;;
30896;SDS011;64229;52.246;21.054;2023-12-20T05:46:09;10.05;;;6.10;;
30896;SDS011;64229;52.246;21.054;2023-12-20T05:48:35;11.43;;;6.03;;
30896;SDS011;64229;52.246;21.054;2023-12-20T05:51:00;13.18;;;6.05;;
30896;SDS011;64229;52.246;21.054;2023-12-20T05:53:26;12.38;;;6.70;;
30896;SDS011;64229;52.246;21.054;2023-12-20T05:55:51;11.15;;;5.93;;
30896;SDS011;64229;52.246;21.054;2023-12-20T05:58:16;13.93;;;7.38;;
30896;SDS011;64229;52.246;21.054;2023-12-20T06:00:42;11.50;;;6.20;;
30896;SDS011;64229;52.246;21.054;2023-12-20T06:03:07;11.05;;;5.95;;
30896;SDS011;64229;52.246;21.054;2023-12-20T06:05:32;13.05;;;6.53;;
30896;SDS011;64229;52.246;21.054;2023-12-20T06:07:58;14.10;;;7.32;;
30896;SDS011;64229;52.246;21.054;2023-12-20T06:10:26;10.85;;;6.10;;
30896;SDS011;64229;52.246;21.054;2023-12-20T06:12:52;10.05;;;6.05;;
30896;SDS011;64229;52.246;21.054;2023-12-20T06:15:17;14.77;;;6.03;;
30896;SDS011;64229;52.246;21.054;2023-12-20T06:17:43;10.05;;;6.22;;
30896;SDS011;64229;52.246;21.054;2023-12-20T06:20:08;8.18;;;5.00;;
30896;SDS011;64229;52.246;21.054;2023-12-20T06:22:35;10.02;;;5.35;;
30896;SDS011;64229;52.246;21.054;2023-12-20T06:25:00;9.68;;;5.50;;
30896;SDS011;64229;52.246;21.054;2023-12-20T06:27:27;8.68;;;4.70;;
30896;SDS011;64229;52.246;21.054;2023-12-20T06:29:52;10.48;;;5.45;;
30896;SDS011;64229;52.246;21.054;2023-12-20T06:32:17;9.13;;;5.03;;
30896;SDS011;64229;52.246;21.054;2023-12-20T06:34:42;8.77;;;4.88;;
30896;SDS011;64229;52.246;21.054;2023-12-20T06:37:08;10.50;;;5.47;;
30896;SDS011;64229;52.246;21.054;2023-12-20T06:39:33;9.13;;;4.50;;
30896;SDS011;64229;52.246;21.054;2023-12-20T06:41:59;8.10;;;4.75;;
30896;SDS011;64229;52.246;21.054;2023-12-20T06:44:24;8.85;;;5.30;;
30896;SDS011;64229;52.246;21.054;2023-12-20T06:46:50;9.48;;;5.07;;
30896;SDS011;64229;52.246;21.054;2023-12-20T06:49:15;12.50;;;5.35;;
30896;SDS011;64229;52.246;21.054;2023-12-20T06:51:41;10.02;;;5.00;;
30896;SDS011;64229;52.246;21.054;2023-12-20T06:54:06;10.90;;;5.15;;
30896;SDS011;64229;52.246;21.054;2023-12-20T06:56:32;13.80;;;5.70;;
30896;SDS011;64229;52.246;21.054;2023-12-20T06:58:57;9.90;;;5.40;;
30896;SDS011;64229;52.246;21.054;2023-12-20T07:01:22;11.45;;;5.82;;
30896;SDS011;64229;52.246;21.054;2023-12-20T07:03:48;8.68;;;5.13;;
30896;SDS011;64229;52.246;21.054;2023-12-20T07:06:13;9.25;;;5.50;;
30896;SDS011;64229;52.246;21.054;2023-12-20T07:08:41;12.02;;;7.38;;
30896;SDS011;64229;52.246;21.054;2023-12-20T07:11:06;13.93;;;6.78;;
30896;SDS011;64229;52.246;21.054;2023-12-20T07:13:32;10.23;;;6.10;;
30896;SDS011;64229;52.246;21.054;2023-12-20T07:15:57;12.35;;;6.35;;
30896;SDS011;64229;52.246;21.054;2023-12-20T07:18:22;11.38;;;6.25;;
30896;SDS011;64229;52.246;21.054;2023-12-20T07:20:47;13.23;;;6.75;;
30896;SDS011;64229;52.246;21.054;2023-12-20T07:23:13;9.95;;;5.85;;
30896;SDS011;64229;52.246;21.054;2023-12-20T07:25:38;12.60;;;7.28;;
30896;SDS011;64229;52.246;21.054;2023-12-20T07:28:04;14.02;;;6.82;;
30896;SDS011;64229;52.246;21.054;2023-12-20T07:30:29;15.90;;;7.75;;
30896;SDS011;64229;52.246;21.054;2023-12-20T07:32:55;17.35;;;7.55;;
30896;SDS011;64229;52.246;21.054;2023-12-20T07:35:20;17.17;;;7.20;;
30896;SDS011;64229;52.246;21.054;2023-12-20T07:37:46;16.90;;;7.55;;
30896;SDS011;64229;52.246;21.054;2023-12-20T07:40:11;14.82;;;6.50;;
30896;SDS011;64229;52.246;21.054;2023-12-20T07:42:36;14.63;;;7.18;;
30896;SDS011;64229;52.246;21.054;2023-12-20T07:45:02;13.43;;;6.70;;
30896;SDS011;64229;52.246;21.054;2023-12-20T07:47:28;15.25;;;7.15;;
30896;SDS011;64229;52.246;21.054;2023-12-20T07:49:54;19.88;;;7.65;;
30896;SDS011;64229;52.246;21.054;2023-12-20T07:52:19;19.42;;;7.63;;
30896;SDS011;64229;52.246;21.054;2023-12-20T07:54:45;17.67;;;7.22;;
30896;SDS011;64229;52.246;21.054;2023-12-20T07:57:10;15.13;;;7.47;;
30896;SDS011;64229;52.246;21.054;2023-12-20T07:59:37;20.10;;;7.80;;
30896;SDS011;64229;52.246;21.054;2023-12-20T08:02:02;18.40;;;7.00;;
30896;SDS011;64229;52.246;21.054;2023-12-20T08:04:28;16.70;;;6.97;;
30896;SDS011;64229;52.246;21.054;2023-12-20T08:06:53;16.20;;;7.75;;
30896;SDS011;64229;52.246;21.054;2023-12-20T08:09:19;16.02;;;6.75;;
30896;SDS011;64229;52.246;21.054;2023-12-20T08:11:47;14.57;;;6.72;;
30896;SDS011;64229;52.246;21.054;2023-12-20T08:14:13;18.02;;;7.20;;
30896;SDS011;64229;52.246;21.054;2023-12-20T08:16:39;13.18;;;6.47;;
30896;SDS011;64229;52.246;21.054;2023-12-20T08:19:04;16.63;;;6.97;;
30896;SDS011;64229;52.246;21.054;2023-12-20T08:21:29;14.98;;;6.75;;
30896;SDS011;64229;52.246;21.054;2023-12-20T08:23:55;14.98;;;6.80;;
30896;SDS011;64229;52.246;21.054;2023-12-20T08:26:20;19.15;;;6.50;;
30896;SDS011;64229;52.246;21.054;2023-12-20T08:28:48;12.82;;;6.00;;
30896;SDS011;64229;52.246;21.054;2023-12-20T08:31:14;14.43;;;6.47;;
30896;SDS011;64229;52.246;21.054;2023-12-20T08:33:41;15.30;;;6.93;;
30896;SDS011;64229;52.246;21.054;2023-12-20T08:36:06;15.15;;;6.45;;
30896;SDS011;64229;52.246;21.054;2023-12-20T08:38:31;14.95;;;6.20;;
30896;SDS011;64229;52.246;21.054;2023-12-20T08:40:57;13.77;;;6.25;;
30896;SDS011;64229;52.246;21.054;2023-12-20T08:43:22;14.10;;;6.20;;
30896;SDS011;64229;52.246;21.054;2023-12-20T08:45:47;14.88;;;6.72;;
30896;SDS011;64229;52.246;21.054;2023-12-20T08:48:13;12.93;;;5.88;;
30896;SDS011;64229;52.246;21.054;2023-12-20T08:50:38;15.55;;;6.07;;
30896;SDS011;64229;52.246;21.054;2023-12-20T08:53:04;14.68;;;6.28;;
30896;SDS011;64229;52.246;21.054;2023-12-20T08:55:29;16.70;;;6.25;;
30896;SDS011;64229;52.246;21.054;2023-12-20T08:57:55;15.27;;;5.63;;
30896;SDS011;64229;52.246;21.054;2023-12-20T09:00:21;13.68;;;5.65;;
30896;SDS011;64229;52.246;21.054;2023-12-20T09:02:49;16.15;;;6.65;;
30896;SDS011;64229;52.246;21.054;2023-12-20T09:05:14;16.10;;;6.30;;
30896;SDS011;64229;52.246;21.054;2023-12-20T09:07:40;14.77;;;6.00;;
30896;SDS011;64229;52.246;21.054;2023-12-20T09:10:05;18.20;;;6.32;;
30896;SDS011;64229;52.246;21.054;2023-12-20T09:12:31;21.85;;;6.95;;
30896;SDS011;64229;52.246;21.054;2023-12-20T09:14:56;17.92;;;6.65;;
30896;SDS011;64229;52.246;21.054;2023-12-20T09:17:22;19.08;;;6.85;;
30896;SDS011;64229;52.246;21.054;2023-12-20T09:19:50;15.45;;;5.80;;
30896;SDS011;64229;52.246;21.054;2023-12-20T09:22:17;15.05;;;6.07;;
30896;SDS011;64229;52.246;21.054;2023-12-20T09:24:43;17.67;;;6.47;;
30896;SDS011;64229;52.246;21.054;2023-12-20T09:27:08;18.08;;;5.90;;
30896;SDS011;64229;52.246;21.054;2023-12-20T09:29:33;16.17;;;6.10;;
30896;SDS011;64229;52.246;21.054;2023-12-20T09:31:59;16.77;;;5.75;;
30896;SDS011;64229;52.246;21.054;2023-12-20T09:34:24;18.60;;;6.20;;
30896;SDS011;64229;52.246;21.054;2023-12-20T09:36:51;15.73;;;5.22;;
30896;SDS011;64229;52.246;21.054;2023-12-20T09:39:17;15.90;;;5.93;;
30896;SDS011;64229;52.246;21.054;2023-12-20T09:42:05;16.58;;;6.20;;
30896;SDS011;64229;52.246;21.054;2023-12-20T09:44:32;14.80;;;5.93;;
30896;SDS011;64229;52.246;21.054;2023-12-20T09:47:04;15.63;;;6.63;;
30896;SDS011;64229;52.246;21.054;2023-12-20T09:49:30;14.10;;;5.90;;
30896;SDS011;64229;52.246;21.054;2023-12-20T09:51:57;20.00;;;6.65;;
30896;SDS011;64229;52.246;21.054;2023-12-20T09:54:25;14.85;;;6.05;;
30896;SDS011;64229;52.246;21.054;2023-12-20T09:56:51;16.02;;;6.15;;
30896;SDS011;64229;52.246;21.054;2023-12-20T09:59:17;11.77;;;4.68;;
30896;SDS011;64229;52.246;21.054;2023-12-20T10:01:43;15.23;;;6.28;;
30896;SDS011;64229;52.246;21.054;2023-12-20T10:04:09;14.73;;;6.15;;
30896;SDS011;64229;52.246;21.054;2023-12-20T10:06:43;14.43;;;5.57;;
30896;SDS011;64229;52.246;21.054;2023-12-20T10:09:09;18.27;;;6.53;;
30896;SDS011;64229;52.246;21.054;2023-12-20T10:11:36;18.58;;;5.85;;
30896;SDS011;64229;52.246;21.054;2023-12-20T10:14:07;15.48;;;5.70;;
30896;SDS011;64229;52.246;21.054;2023-12-20T10:16:33;14.00;;;5.35;;
30896;SDS011;64229;52.246;21.054;2023-12-20T10:18:59;14.02;;;5.57;;
30896;SDS011;64229;52.246;21.054;2023-12-20T10:21:29;13.68;;;5.28;;
30896;SDS011;64229;52.246;21.054;2023-12-20T10:23:55;13.65;;;5.22;;
30896;SDS011;64229;52.246;21.054;2023-12-20T10:26:22;16.15;;;6.03;;
30896;SDS011;64229;52.246;21.054;2023-12-20T10:28:55;16.15;;;6.68;;
30896;SDS011;64229;52.246;21.054;2023-12-20T10:31:28;13.35;;;5.68;;
30896;SDS011;64229;52.246;21.054;2023-12-20T10:33:58;14.80;;;5.53;;
30896;SDS011;64229;52.246;21.054;2023-12-20T10:36:25;15.20;;;6.15;;
30896;SDS011;64229;52.246;21.054;2023-12-20T10:38:52;12.55;;;5.35;;
30896;SDS011;64229;52.246;21.054;2023-12-20T10:41:18;15.93;;;6.55;;
30896;SDS011;64229;52.246;21.054;2023-12-20T10:43:50;13.65;;;5.88;;
30896;SDS011;64229;52.246;21.054;2023-12-20T10:46:16;19.45;;;5.93;;
30896;SDS011;64229;52.246;21.054;2023-12-20T10:48:43;17.52;;;6.10;;
30896;SDS011;64229;52.246;21.054;2023-12-20T10:51:10;15.10;;;6.43;;
30896;SDS011;64229;52.246;21.054;2023-12-20T10:53:36;13.52;;;6.03;;
30896;SDS011;64229;52.246;21.054;2023-12-20T10:56:05;16.88;;;6.85;;
30896;SDS011;64229;52.246;21.054;2023-12-20T10:58:33;14.02;;;5.78;;
30896;SDS011;64229;52.246;21.054;2023-12-20T11:01:00;15.25;;;6.38;;
30896;SDS011;64229;52.246;21.054;2023-12-20T11:03:29;15.77;;;6.13;;
30896;SDS011;64229;52.246;21.054;2023-12-20T11:08:32;15.63;;;5.70;;
30896;SDS011;64229;52.246;21.054;2023-12-20T11:11:04;15.32;;;5.93;;
30896;SDS011;64229;52.246;21.054;2023-12-20T11:13:37;15.35;;;6.22;;
30896;SDS011;64229;52.246;21.054;2023-12-20T11:16:09;14.93;;;6.22;;
30896;SDS011;64229;52.246;21.054;2023-12-20T11:18:35;11.88;;;5.53;;
30896;SDS011;64229;52.246;21.054;2023-12-20T11:21:01;23.98;;;5.97;;
30896;SDS011;64229;52.246;21.054;2023-12-20T11:23:29;14.35;;;6.63;;
30896;SDS011;64229;52.246;21.054;2023-12-20T11:25:56;13.98;;;5.78;;
30896;SDS011;64229;52.246;21.054;2023-12-20T11:28:24;11.80;;;5.35;;
30896;SDS011;64229;52.246;21.054;2023-12-20T11:30:53;14.70;;;5.70;;
30896;SDS011;64229;52.246;21.054;2023-12-20T11:33:24;15.98;;;6.30;;
30896;SDS011;64229;52.246;21.054;2023-12-20T11:36:19;15.02;;;5.90;;
30896;SDS011;64229;52.246;21.054;2023-12-20T11:38:58;13.15;;;5.57;;
30896;SDS011;64229;52.246;21.054;2023-12-20T11:41:25;14.85;;;5.72;;
30896;SDS011;64229;52.246;21.054;2023-12-20T11:43:54;13.75;;;5.65;;
30896;SDS011;64229;52.246;21.054;2023-12-20T11:46:20;15.13;;;7.18;;
30896;SDS011;64229;52.246;21.054;2023-12-20T11:48:45;15.38;;;6.00;;
30896;SDS011;64229;52.246;21.054;2023-12-20T11:51:12;13.43;;;5.63;;
30896;SDS011;64229;52.246;21.054;2023-12-20T11:53:39;12.57;;;4.97;;
30896;SDS011;64229;52.246;21.054;2023-12-20T11:56:07;13.68;;;5.38;;
30896;SDS011;64229;52.246;21.054;2023-12-20T11:58:33;14.65;;;5.07;;
30896;SDS011;64229;52.246;21.054;2023-12-20T12:00:59;12.68;;;5.20;;
30896;SDS011;64229;52.246;21.054;2023-12-20T12:03:25;15.52;;;5.43;;
30896;SDS011;64229;52.246;21.054;2023-12-20T12:05:50;13.68;;;5.28;;
30896;SDS011;64229;52.246;21.054;2023-12-20T12:08:19;20.50;;;6.68;;
30896;SDS011;64229;52.246;21.054;2023-12-20T12:10:45;13.07;;;5.90;;
30896;SDS011;64229;52.246;21.054;2023-12-20T12:13:10;16.45;;;6.40;;
30896;SDS011;64229;52.246;21.054;2023-12-20T12:15:36;15.82;;;6.50;;
30896;SDS011;64229;52.246;21.054;2023-12-20T12:18:02;17.50;;;6.25;;
30896;SDS011;64229;52.246;21.054;2023-12-20T12:20:30;17.17;;;6.75;;
30896;SDS011;64229;52.246;21.054;2023-12-20T12:22:59;17.48;;;7.18;;
30896;SDS011;64229;52.246;21.054;2023-12-20T12:25:31;17.23;;;6.88;;
30896;SDS011;64229;52.246;21.054;2023-12-20T12:27:59;17.60;;;7.10;;
30896;SDS011;64229;52.246;21.054;2023-12-20T12:30:25;21.20;;;8.02;;
30896;SDS011;64229;52.246;21.054;2023-12-20T12:32:54;23.20;;;7.97;;
30896;SDS011;64229;52.246;21.054;2023-12-20T12:35:21;18.92;;;7.55;;
30896;SDS011;64229;52.246;21.054;2023-12-20T12:37:46;17.23;;;7.57;;
30896;SDS011;64229;52.246;21.054;2023-12-20T12:40:12;16.85;;;7.28;;
30896;SDS011;64229;52.246;21.054;2023-12-20T12:42:40;18.65;;;7.50;;
30896;SDS011;64229;52.246;21.054;2023-12-20T12:45:07;20.52;;;8.07;;
30896;SDS011;64229;52.246;21.054;2023-12-20T12:47:33;16.75;;;7.15;;
30896;SDS011;64229;52.246;21.054;2023-12-20T12:49:59;15.98;;;7.18;;
30896;SDS011;64229;52.246;21.054;2023-12-20T12:52:24;19.08;;;7.63;;
30896;SDS011;64229;52.246;21.054;2023-12-20T12:54:51;21.13;;;8.18;;
30896;SDS011;64229;52.246;21.054;2023-12-20T12:57:17;19.20;;;7.68;;
30896;SDS011;64229;52.246;21.054;2023-12-20T12:59:43;16.90;;;7.85;;
30896;SDS011;64229;52.246;21.054;2023-12-20T13:02:10;16.77;;;7.85;;
30896;SDS011;64229;52.246;21.054;2023-12-20T13:04:36;19.85;;;8.27;;
30896;SDS011;64229;52.246;21.054;2023-12-20T13:07:01;18.60;;;8.18;;
30896;SDS011;64229;52.246;21.054;2023-12-20T13:09:26;16.13;;;7.10;;
30896;SDS011;64229;52.246;21.054;2023-12-20T13:11:52;20.95;;;7.50;;
30896;SDS011;64229;52.246;21.054;2023-12-20T13:14:17;14.90;;;7.90;;
30896;SDS011;64229;52.246;21.054;2023-12-20T13:16:42;16.38;;;7.30;;
30896;SDS011;64229;52.246;21.054;2023-12-20T13:19:09;18.05;;;8.15;;
30896;SDS011;64229;52.246;21.054;2023-12-20T13:21:35;18.80;;;8.43;;
30896;SDS011;64229;52.246;21.054;2023-12-20T13:24:01;21.73;;;8.68;;
30896;SDS011;64229;52.246;21.054;2023-12-20T13:26:27;17.50;;;8.75;;
30896;SDS011;64229;52.246;21.054;2023-12-20T13:28:53;12.07;;;6.85;;
30896;SDS011;64229;52.246;21.054;2023-12-20T13:31:19;14.77;;;6.90;;
30896;SDS011;64229;52.246;21.054;2023-12-20T13:33:45;14.45;;;6.60;;
30896;SDS011;64229;52.246;21.054;2023-12-20T13:36:10;10.93;;;6.05;;
30896;SDS011;64229;52.246;21.054;2023-12-20T13:38:35;11.52;;;6.38;;
30896;SDS011;64229;52.246;21.054;2023-12-20T13:41:01;12.80;;;6.43;;
30896;SDS011;64229;52.246;21.054;2023-12-20T13:43:26;11.65;;;6.40;;
30896;SDS011;64229;52.246;21.054;2023-12-20T13:45:52;12.93;;;6.75;;
30896;SDS011;64229;52.246;21.054;2023-12-20T13:48:17;15.27;;;7.38;;
30896;SDS011;64229;52.246;21.054;2023-12-20T13:50:43;15.73;;;7.28;;
30896;SDS011;64229;52.246;21.054;2023-12-20T13:53:09;15.10;;;7.43;;
30896;SDS011;64229;52.246;21.054;2023-12-20T13:55:34;12.07;;;7.03;;
30896;SDS011;64229;52.246;21.054;2023-12-20T13:57:59;12.90;;;7.57;;
30896;SDS011;64229;52.246;21.054;2023-12-20T14:00:25;18.05;;;7.45;;
30896;SDS011;64229;52.246;21.054;2023-12-20T14:02:50;15.60;;;7.65;;
30896;SDS011;64229;52.246;21.054;2023-12-20T14:05:16;12.60;;;7.03;;
30896;SDS011;64229;52.246;21.054;2023-12-20T14:07:46;10.73;;;5.88;;
30896;SDS011;64229;52.246;21.054;2023-12-20T14:10:15;10.20;;;5.38;;
30896;SDS011;64229;52.246;21.054;2023-12-20T14:12:40;10.38;;;5.20;;
30896;SDS011;64229;52.246;21.054;2023-12-20T14:15:06;9.77;;;5.53;;
30896;SDS011;64229;52.246;21.054;2023-12-20T14:17:42;11.00;;;5.78;;
30896;SDS011;64229;52.246;21.054;2023-12-20T14:20:07;9.73;;;5.47;;